• Join FlightAware (Why Join?)
  • Login
  • US Flag 
10:01PM EDT


 

Airport Tracker/Info


-or-


 

Live Flight TrackerFlight Track Log ✈ VNR104 ✈ 13-May-2013 ✈ KFSD - KEGE

Flight Track Log - Related Links

Times and Time Zones

All times are in EDT time to prevent confusion due to time zone crossing. See the VNR104 flight status page for this flight to view local times or setup timezone preferences in your user account.

Time Position Orientation Groundspeed Altitude Reporting Facility
EDT Latitude Longitude Course Direction KTS MPH feet Rate Location/Type
05:32PM 43.5625 -96.7700 243° Southwest 144 166 2,800  Level Minneapolis Center
05:33PM 43.5431 -96.8231 243° Southwest 159 183 4,400 1,500 Climbing Minneapolis Center
05:34PM 43.5217 -96.8861 245° Southwest 169 194 6,000 1,680 Climbing Minneapolis Center
05:35PM 43.4933 -96.9556 241° Southwest 187 215 7,900 1,920 Climbing Minneapolis Center
05:36PM 43.4661 -97.0253 242° Southwest 199 229 10,000 1,980 Climbing Minneapolis Center
05:37PM 43.4383 -97.0958 242° Southwest 205 236 12,100 1,800 Climbing Minneapolis Center
05:38PM 43.4158 -97.1569 243° Southwest 213 245 13,700 2,040 Climbing Minneapolis Center
05:40PM 43.3725 -97.2678 242° Southwest 231 266 16,400 2,220 Climbing Minneapolis Center
05:41PM 43.3419 -97.3475 242° Southwest 236 272 18,400 1,740 Climbing Minneapolis Center
05:42PM 43.3097 -97.4317 242° Southwest 247 284 20,100 1,620 Climbing Minneapolis Center
05:43PM 43.2753 -97.5181 241° Southwest 257 296 21,800 1,740 Climbing Minneapolis Center
05:44PM 43.2406 -97.6039 241° Southwest 258 297 23,700 1,620 Climbing Minneapolis Center
05:45PM 43.2067 -97.6917 242° Southwest 259 298 25,200 1,320 Climbing Minneapolis Center
05:46PM 43.1633 -97.7994 241° Southwest 270 311 26,700 1,380 Climbing Minneapolis Center
05:47PM 43.1192 -97.9094 241° Southwest 276 318 28,400 1,380 Climbing Minneapolis Center
05:48PM 43.0831 -98.0017 242° Southwest 276 318 29,600 780 Climbing Minneapolis Center
05:49PM 43.0450 -98.0978 242° Southwest 287 330 30,000 180 Climbing Minneapolis Center
05:50PM 43.0008 -98.2044 241° Southwest 318 366 30,000  Level Minneapolis Center
05:51PM 42.9547 -98.3197 241° Southwest 340 391 30,000  Level Minneapolis Center
05:52PM 42.8956 -98.4644 241° Southwest 362 417 30,000  Level Minneapolis Center
05:53PM 42.8494 -98.5781 241° Southwest 367 422 30,000  Level Minneapolis Center
05:54PM 42.7994 -98.7006 241° Southwest 370 426 30,000  Level Minneapolis Center
05:55PM 42.7494 -98.8231 241° Southwest 370 426 30,000  Level Minneapolis Center
05:56PM 42.6878 -98.9694 240° Southwest 372 428 30,000  Level Minneapolis Center
05:57PM 42.6364 -99.0922 240° Southwest 373 429 30,000  Level Minneapolis Center
05:58PM 42.5858 -99.2150 241° Southwest 374 430 30,000  Level Minneapolis Center
05:59PM 42.5350 -99.3356 240° Southwest 371 427 30,000  Level Minneapolis Center
06:00PM 42.5150 -99.3856 242° Southwest 372 428 30,000  Level Denver Center
06:01PM 42.4536 -99.5294 240° Southwest 368 423 30,000  Level Denver Center
06:02PM 42.4028 -99.6494 240° Southwest 367 422 30,000  Level Denver Center
06:02PM 42.3825 -99.6975 240° Southwest 369 425 30,000  Level Minneapolis Center
06:03PM 42.3492 -99.7750 240° Southwest 367 422 30,000  Level Denver Center
06:04PM 42.3006 -99.8894 240° Southwest 369 425 30,000  Level Denver Center
06:05PM 42.2428 -100.0228 240° Southwest 369 425 30,000  Level Denver Center
06:06PM 42.1928 -100.1400 240° Southwest 374 430 30,000  Level Denver Center
06:07PM 42.1261 -100.2911 239° Southwest 369 425 30,000  Level Denver Center
06:08PM 42.1142 -100.3225 243° Southwest 373 429 30,000  Level Minneapolis Center
06:08PM 42.0764 -100.4072 239° Southwest 371 427 30,000  Level Denver Center
06:09PM 42.0178 -100.5425 240° Southwest 374 430 30,000  Level Denver Center
06:10PM 41.9686 -100.6556 240° Southwest 370 426 30,000  Level Denver Center
06:11PM 41.9106 -100.7886 240° Southwest 371 427 30,000  Level Denver Center
06:12PM 41.8603 -100.9028 239° Southwest 371 427 30,000  Level Denver Center
06:13PM 41.7994 -101.0381 239° Southwest 376 433 30,000  Level Denver Center
06:14PM 41.7489 -101.1536 240° Southwest 377 434 30,000  Level Denver Center
06:15PM 41.6872 -101.2889 239° Southwest 380 437 30,000  Level Denver Center
06:17PM 41.6375 -101.4025 240° Southwest 374 430 30,000  Level Denver Center
06:18PM 41.5767 -101.5364 239° Southwest 377 434 30,000  Level Denver Center
06:19PM 41.5239 -101.6517 239° Southwest 380 437 30,000  Level Denver Center
06:20PM 41.4725 -101.7639 239° Southwest 375 432 30,000  Level Denver Center
06:21PM 41.4133 -101.8956 239° Southwest 372 428 30,000  Level Denver Center
06:22PM 41.3603 -102.0097 238° Southwest 378 435 30,000  Level Denver Center
06:23PM 41.3000 -102.1406 239° Southwest 374 430 30,000  Level Denver Center
06:24PM 41.2481 -102.2542 239° Southwest 376 433 30,000  Level Denver Center
06:25PM 41.1869 -102.3847 238° Southwest 373 429 30,000  Level Denver Center
06:26PM 41.1353 -102.4975 239° Southwest 374 430 30,000  Level Denver Center
06:27PM 41.0736 -102.6286 238° Southwest 376 433 30,000  Level Denver Center
06:28PM 41.0200 -102.7403 238° Southwest 375 432 30,000  Level Denver Center
06:29PM 40.9597 -102.8697 238° Southwest 372 428 30,000  Level Denver Center
06:30PM 40.9067 -102.9828 238° Southwest 376 433 30,000  Level Denver Center
06:31PM 40.8494 -103.1000 237° Southwest 376 433 30,000  Level Denver Center
06:32PM 40.7881 -103.2306 238° Southwest 375 432 30,000  Level Denver Center
06:33PM 40.7344 -103.3431 238° Southwest 377 434 30,000  Level Denver Center
06:34PM 40.6733 -103.4714 238° Southwest 370 426 30,000  Level Denver Center
06:35PM 40.6197 -103.5803 237° Southwest 369 425 30,000  Level Denver Center
06:36PM 40.5664 -103.6903 237° Southwest 371 427 30,000  Level Denver Center
06:37PM 40.5042 -103.8192 238° Southwest 373 429 30,000  Level Denver Center
06:38PM 40.4447 -103.9411 237° Southwest 375 432 30,000  Level Denver Center
06:39PM 40.3892 -104.0575 238° Southwest 376 433 30,000  Level Denver Center
06:40PM 40.3331 -104.1700 237° Southwest 371 427 30,000  Level Denver Center
06:41PM 40.2733 -104.2917 237° Southwest 370 426 30,000  Level Denver Center
06:42PM 40.2178 -104.4042 237° Southwest 369 425 30,000  Level Denver Center
06:43PM 40.1572 -104.5264 237° Southwest 372 428 30,000  Level Denver Center
06:44PM 40.1006 -104.6403 237° Southwest 375 432 30,000  Level Denver Center
06:45PM 40.0442 -104.7664 240° Southwest 379 436 30,000  Level Denver Center
06:46PM 40.0350 -104.8997 265° West 373 429 30,000  Level Denver Center
06:47PM 40.0325 -105.0450 269° West 374 430 30,000 -420 Level Denver Center
06:49PM 40.0403 -105.1800 274° West 379 436 29,200 -1,380 Descending Denver Center
06:50PM 40.0586 -105.3175 280° West 389 448 27,200 -1,500 Descending Denver Center
06:51PM 40.0781 -105.4628 280° West 381 438 26,200 -1,140 Descending Denver Center
06:52PM 40.0658 -105.5986 263° West 379 436 24,900 -1,380 Descending Denver Center
06:53PM 40.0569 -105.7406 265° West 365 420 23,400 -1,320 Descending Denver Center
06:54PM 40.0475 -105.8558 264° West 343 395 22,200 -1,200 Descending Denver Center
06:55PM 40.0375 -105.9800 264° West 345 397 21,000 -1,260 Descending Denver Center
06:56PM 40.0289 -106.1069 265° West 349 402 19,700 -1,260 Descending Denver Center
06:57PM 40.0197 -106.2306 265° West 345 397 18,500 -1,260 Descending Denver Center
06:58PM 40.0086 -106.3728 264° West 334 384 17,200 -780 Descending Denver Center
06:59PM 39.9558 -106.4619 232° Southwest 333 383 17,000 -720 Descending Denver Center
07:00PM 39.8750 -106.5008 200° South 314 361 15,800 -1,020 Descending Denver Center
07:01PM 39.8125 -106.5733 222° Southwest 303 349 15,000 -1,380 Descending Denver Center
07:02PM 39.7531 -106.6464 223° Southwest 298 343 13,000 -2,460 Descending Denver Center
07:03PM 39.7039 -106.7247 231° Southwest 287 330 10,000 -2,340 Descending Denver Center
07:04PM 39.6669 -106.7992 237° Southwest 259 298 8,300 -1,440 Descending Denver Center
07:05PM 39.6472 -106.8744 251° West 201 231 7,100 -1,200 Descending Denver Center